KHUA/HUA METAR and TAF weather

Enter ICAO airport designator
Station Type Date Time Source
KHUA METAR 2020/07/03 12:58 UTC NOAA

KHUA 031258Z AUTO 00000KT 7SM CLR 26/24 A2998 RMK AO2 SLP146 T02590237 $


Station Type Date Time Source
KHUA Decoded METAR 2020/07/03 12:58 UTC NOAA

Station name not available
Jul 03, 2020 - 08:58 AM EDT / 2020.07.03 1258 UTC
Wind: Calm:0
Visibility: 7 mile(s):0
Sky conditions: clear
Temperature: 78.6 F (25.9 C)
Dew Point: 74.7 F (23.7 C)
Relative Humidity: 87%
Pressure (altimeter): 29.98 in. Hg (1015 hPa)
ob: KHUA 031258Z AUTO 00000KT 7SM CLR 26/24 A2998 RMK AO2 SLP146 T02590237
cycle: 13

Station Type Date Time Source
KHUA TAF UTC NOAA

Error!

Example: see airport list